Wednesday, January 17, 2018, 9:38 AM EST
Back to Local

KDXR, Danbury Municipal Airport

Location: Danbury, CT, United States Lat: 41.367
Local Time: 9:38 AM EST (14:38 GMT) Lon: -73.483
Time Zone: US/Eastern Elev: 459 ft

Show me the last for .
Show Decoded

2018-01-17 09:01 METAR KDXR 171401Z 30003KT 1 3/4SM -SN BR OVC007 01/M01 A3025 RMK AO2 P0000
                 T00061006 =
2018-01-17 08:53 METAR KDXR 171353Z 00000KT 1SM -SN BR VV007 01/00 A3025 RMK AO2 SLP249 P0002
                 T00060000 =
2018-01-17 08:02 METAR KDXR 171302Z 00000KT 3/4SM -SN BR VV005 01/M01 A3025 RMK AO2 P0001
                 T00061006 =
2018-01-17 07:53 METAR KDXR 171253Z 00000KT 1 1/4SM -SN BR OVC005 01/M01 A3025 RMK AO2 SLP246
                 P0000 T00061006 =
2018-01-17 07:21 METAR KDXR 171221Z 00000KT 1 1/2SM -SN BR OVC005 01/M01 A3025 RMK AO2 P0000
                 T00061006 =
2018-01-17 07:05 METAR KDXR 171205Z 00000KT 2 1/2SM -SN BR OVC005 01/M01 A3025 RMK AO2 P0000
                 T00061006 =
2018-01-17 06:53 METAR KDXR 171153Z 03003KT 2SM -SN BR OVC004 01/M01 A3025 RMK AO2 SLP247 P0002
                 60009 70009 I6004 T00061006 10006 21006 56004 =
2018-01-17 06:48 METAR KDXR 171148Z AUTO 00000KT 2SM -SN BR OVC004 01/M01 A3025 RMK AO2 P0002 =
2018-01-17 06:40 METAR KDXR 171140Z AUTO 00000KT 1 3/4SM -SN BR OVC004 01/M01 A3025 RMK AO2 P0002
                 T00061006 =
2018-01-17 06:31 METAR KDXR 171131Z AUTO 00000KT 2SM -SN BR OVC004 01/M01 A3025 RMK AO2 P0001
                 T00061006 =
2018-01-17 06:17 METAR KDXR 171117Z AUTO 08003KT 3SM -SN BR OVC004 01/M01 A3025 RMK AO2 P0001
                 T00061006 =
2018-01-17 05:58 METAR KDXR 171058Z AUTO 08003KT 2SM -SN BR OVC004 01/M01 A3025 RMK AO2 P0000
                 T00061006 =
2018-01-17 05:51 METAR KDXR 171051Z AUTO 11003KT 2 1/2SM -SN BR OVC005 01/M01 A3026 RMK AO2
                 RAB09E16FZRAB16E45SNB45 SLP250 P0002 I1001 T00061006 =
2018-01-17 05:50 METAR KDXR 171050Z AUTO 10003KT 2 1/2SM -SN BR OVC005 01/M01 A3026 RMK AO2
                 RAB09E16FZRAB16E45SNB45 P0002 I1001 =
2018-01-17 05:22 METAR KDXR 171022Z AUTO 00000KT 3SM -FZRA BR OVC005 01/M01 A3026 RMK AO2
                 RAB09E16FZRAB16 P0001 I1000 T00061006 =
2018-01-17 04:53 METAR KDXR 170953Z AUTO 00000KT 4SM BR OVC005 01/M01 A3026 RMK AO2
                 RAB01E05B37E50FZRAE37 SLP251 P0000 I1001 T00061006 =
2018-01-17 04:43 METAR KDXR 170943Z AUTO 08003KT 4SM -RA BR OVC005 00/M01 A3026 RMK AO2
                 RAB01E05B37FZRAE37 P0000 I1001 T00001006 =
2018-01-17 03:53 METAR KDXR 170853Z AUTO VRB03KT 3SM -FZRA BR OVC005 01/M01 A3028 RMK AO2
                 RAB08E13 SLP256 P0002 60005 I1001 I3002 T00061011 56010 =
2018-01-17 03:49 METAR KDXR 170849Z AUTO 06005KT 3SM -FZRA BR OVC005 01/M01 A3028 RMK AO2
                 RAB08E13 P0002 I1001 =
2018-01-17 03:32 METAR KDXR 170832Z AUTO 00000KT 3SM -FZRA BR OVC004 01/M01 A3029 RMK AO2
                 RAB08E13 P0002 I1001 T00061006 =
2018-01-17 02:53 METAR KDXR 170753Z AUTO 08003KT 3SM -FZRA BR OVC007 00/M01 A3030 RMK AO2
                 UPE53FZRAB53 SLP266 P0002 I1001 T00001006 =
2018-01-17 01:53 METAR KDXR 170653Z AUTO 05004KT 4SM UP BR OVC008 M01/M02 A3031 RMK AO2
                 UPE17B34SNB17E34 SLP266 P0001 T10061022 =
2018-01-17 01:12 METAR KDXR 170612Z AUTO 05003KT 4SM UP OVC009 00/M03 A3031 RMK AO2 P0000
                 T00001028 =
2018-01-17 00:53 METAR KDXR 170553Z AUTO 05004KT 7SM UP OVC010 00/M03 A3032 RMK AO2
                 UPB08E16B45SNB07E08B16E17 SLP271 P0000 60000 T00001033 10000 21017 58021 =
2018-01-16 23:53 METAR KDXR 170453Z AUTO 04004KT 8SM BKN013 BKN018 OVC029 00/M03 A3034 RMK AO2
                 SLP277 T00001033 400001078 =
2018-01-16 22:53 METAR KDXR 170353Z AUTO 08003KT 8SM OVC024 M01/M04 A3037 RMK AO2 SLP287
                 T10061039 =
2018-01-16 22:24 METAR KDXR 170324Z AUTO 00000KT 8SM OVC029 M01/M04 A3037 RMK AO2 T10061039 =
2018-01-16 22:09 METAR KDXR 170309Z AUTO 00000KT 8SM OVC030 M01/M04 A3038 RMK AO2 T10061039 =
2018-01-16 21:53 METAR KDXR 170253Z 00000KT 8SM OVC028 M01/M04 A3038 RMK AO2 SLP294 T10061039
                 56008 =
2018-01-16 20:53 METAR KDXR 170153Z 00000KT 9SM OVC026 M01/M04 A3039 RMK AO2 SLP296 T10061039 =
2018-01-16 20:09 METAR KDXR 170109Z 00000KT 10SM BKN027 M02/M04 A3040 RMK AO2 T10171044 =
2018-01-16 19:55 METAR KDXR 170055Z 00000KT 10SM SCT028 SCT100 M01/M04 A3040 RMK AO2 T10111044 =
2018-01-16 19:53 METAR KDXR 170053Z 00000KT 10SM BKN028 OVC070 M01/M04 A3040 RMK AO2 SLP300
                 T10111044 =
2018-01-16 18:53 METAR KDXR 162353Z 00000KT 10SM OVC026 M01/M04 A3041 RMK AO2 SLP302 T10111039
                 10000 21011 56005 =
2018-01-16 17:53 METAR KDXR 162253Z 06003KT 10SM OVC026 00/M04 A3041 RMK AO2 SLP303 T00001039 =
2018-01-16 16:53 METAR KDXR 162153Z 00000KT 10SM OVC023 00/M04 A3041 RMK AO2 SLP305 T00001044 =
2018-01-16 15:53 METAR KDXR 162053Z 15003KT 10SM OVC024 00/M04 A3042 RMK AO2 SLP307 T00001039
                 55003 =
2018-01-16 14:53 METAR KDXR 161953Z 13003KT 8SM OVC027 00/M04 A3042 RMK AO2 SLP305 T00001039 =
2018-01-16 13:53 METAR KDXR 161853Z 13004KT 10SM OVC025 00/M04 A3043 RMK AO2 SLP308 T00001044 =
2018-01-16 12:53 METAR KDXR 161753Z 14006KT 10SM OVC026 M01/M04 A3043 RMK AO2 SLP310 60000
                 T10061044 10000 21056 58023 =
2018-01-16 11:53 METAR KDXR 161653Z 00000KT 10SM OVC029 M01/M05 A3046 RMK AO2 SLP319 T10061050 =
2018-01-16 10:53 METAR KDXR 161553Z 02003KT 10SM BKN028 OVC080 M02/M06 A3049 RMK AO2 SLP330
                 T10221061 =
2018-01-16 09:53 METAR KDXR 161453Z 12003KT 10SM SCT085 M03/M07 A3050 RMK AO2 SNE06 SLP335 P0000
                 60000 T10281067 56002 =

Support USWX by starting your Amazon purchase here.